Time;durP1;ratioP1;P1;durP2;ratioP2;P2;SDS_P1;SDS_P2;PMS_P1;PMS_P2;Temp;Humidity;BMP_temperature;BMP_pressure;BME280_temperature;BME280_humidity;BME280_pressure;Samples;Min_cycle;Max_cycle;Signal;HPM_P1;HPM_P2
2022/07/04 00:00:16;;;;;;;3.95;3.65;;;13.90;99.90;;;;;;5080696;28;20067;-65
2022/07/04 00:02:44;;;;;;;5.97;3.80;;;13.90;99.90;;;;;;5087357;28;20052;-65
2022/07/04 00:05:11;;;;;;;3.97;3.67;;;13.90;99.90;;;;;;5085324;28;20406;-65
2022/07/04 00:07:40;;;;;;;4.10;3.53;;;13.90;99.90;;;;;;5085071;28;20036;-65
2022/07/04 00:10:08;;;;;;;7.40;4.63;;;13.90;99.90;;;;;;5083688;28;20428;-65
2022/07/04 00:12:34;;;;;;;5.93;4.30;;;13.90;99.90;;;;;;5066222;28;20040;-65
2022/07/04 00:15:01;;;;;;;4.30;3.90;;;14.00;99.90;;;;;;5067354;28;20036;-65
2022/07/04 00:17:26;;;;;;;4.75;4.35;;;13.90;99.90;;;;;;5064918;28;20048;-65
2022/07/04 00:19:52;;;;;;;4.20;3.88;;;13.90;99.90;;;;;;5082877;28;20040;-65
2022/07/04 00:22:18;;;;;;;4.18;3.83;;;13.90;99.90;;;;;;5069619;28;20063;-65
2022/07/04 00:24:43;;;;;;;4.05;3.75;;;13.90;99.90;;;;;;5063842;28;20052;-65
2022/07/04 00:27:09;;;;;;;5.43;4.55;;;13.80;99.90;;;;;;5071175;28;20040;-65
2022/07/04 00:29:35;;;;;;;3.80;3.50;;;13.70;99.90;;;;;;5081815;28;20181;-65
2022/07/04 00:32:01;;;;;;;4.45;4.05;;;13.60;99.90;;;;;;5083988;28;20760;-65
2022/07/04 00:34:27;;;;;;;3.85;3.55;;;13.60;99.90;;;;;;5082357;28;20077;-65
2022/07/04 00:36:53;;;;;;;4.75;3.90;;;13.50;99.90;;;;;;5084931;28;20597;-65
2022/07/04 00:39:19;;;;;;;3.80;3.50;;;13.50;99.90;;;;;;5064846;28;20047;-65
2022/07/04 00:41:45;;;;;;;4.47;4.05;;;13.40;99.90;;;;;;5080004;28;20055;-65
2022/07/04 00:44:12;;;;;;;5.25;4.22;;;13.30;99.90;;;;;;5049641;28;20051;-65
2022/07/04 00:46:38;;;;;;;4.07;3.63;;;13.30;99.90;;;;;;5069228;28;20048;-65
2022/07/04 00:49:05;;;;;;;4.68;3.85;;;13.50;99.90;;;;;;5081221;28;20036;-65
2022/07/04 00:51:32;;;;;;;5.13;3.85;;;13.30;99.90;;;;;;5079597;28;20032;-65
2022/07/04 00:53:59;;;;;;;4.47;3.60;;;13.30;99.90;;;;;;5054383;28;20039;-65
2022/07/04 00:56:25;;;;;;;4.18;3.53;;;13.30;99.90;;;;;;5087134;28;20067;-65
2022/07/04 00:58:52;;;;;;;5.78;3.58;;;13.30;99.90;;;;;;5062926;28;20040;-65
2022/07/04 01:01:19;;;;;;;3.53;3.22;;;13.30;99.90;;;;;;5065061;28;20055;-66
2022/07/04 01:03:45;;;;;;;3.85;3.50;;;13.30;99.90;;;;;;5064538;28;20132;-65
2022/07/04 01:06:11;;;;;;;5.88;3.50;;;13.40;99.90;;;;;;5065675;28;20036;-65
2022/07/04 01:08:39;;;;;;;3.75;3.45;;;13.40;99.90;;;;;;5082967;28;20054;-65
2022/07/04 01:11:05;;;;;;;3.80;3.50;;;13.40;99.90;;;;;;5068918;28;20050;-65
2022/07/04 01:13:31;;;;;;;4.28;3.88;;;13.40;99.90;;;;;;5083614;28;20417;-65
2022/07/04 01:15:56;;;;;;;3.83;3.50;;;13.30;99.90;;;;;;5079566;28;20055;-65
2022/07/04 01:18:22;;;;;;;4.40;3.95;;;13.30;99.90;;;;;;5084671;28;20040;-65
2022/07/04 01:20:48;;;;;;;5.88;4.20;;;13.30;99.90;;;;;;5067513;28;20087;-65
2022/07/04 01:23:14;;;;;;;4.50;3.42;;;13.30;99.90;;;;;;5084348;28;20040;-65
2022/07/04 01:25:40;;;;;;;5.28;4.32;;;13.20;99.90;;;;;;5066050;28;20051;-65
2022/07/04 01:28:08;;;;;;;8.00;4.60;;;13.30;99.90;;;;;;5080095;28;20042;-65
2022/07/04 01:30:35;;;;;;;7.15;4.93;;;13.30;99.90;;;;;;5062300;28;20473;-65
2022/07/04 01:33:00;;;;;;;6.35;4.68;;;13.30;99.90;;;;;;5064572;28;20364;-65
2022/07/04 01:35:26;;;;;;;6.25;4.32;;;13.20;99.90;;;;;;5064314;28;20149;-65
2022/07/04 01:37:52;;;;;;;8.00;5.00;;;13.20;99.90;;;;;;5063164;28;20126;-65
2022/07/04 01:40:18;;;;;;;5.70;4.70;;;13.20;99.90;;;;;;5067400;28;20046;-65
2022/07/04 01:42:43;;;;;;;4.90;4.30;;;13.20;99.90;;;;;;5063578;28;20051;-65
2022/07/04 01:45:10;;;;;;;5.85;5.15;;;13.20;99.90;;;;;;5079738;28;20029;-65
2022/07/04 01:47:37;;;;;;;5.90;4.82;;;13.20;99.90;;;;;;5065095;28;20086;-65
2022/07/04 01:50:04;;;;;;;5.53;4.85;;;13.10;99.90;;;;;;5066979;28;20051;-65
2022/07/04 01:52:30;;;;;;;6.13;4.28;;;13.20;99.90;;;;;;5086547;28;20073;-65
2022/07/04 01:54:55;;;;;;;5.28;4.75;;;13.10;99.90;;;;;;5066093;28;20036;-65
2022/07/04 01:57:21;;;;;;;4.20;3.90;;;13.10;99.90;;;;;;5084450;28;20040;-65
2022/07/04 02:02:31;;;;;;;5.75;5.25;;;13.00;99.90;;;;;;5067596;28;20509;-65
2022/07/04 02:04:57;;;;;;;5.90;4.68;;;13.00;99.90;;;;;;5065606;28;20040;-65
2022/07/04 02:07:22;;;;;;;5.30;3.63;;;13.00;99.90;;;;;;5083034;28;20044;-65
2022/07/04 02:09:48;;;;;;;5.57;4.95;;;13.00;99.90;;;;;;5062602;28;20124;-65
2022/07/04 02:14:58;;;;;;;4.53;4.13;;;13.00;99.90;;;;;;5083644;28;20409;-65
2022/07/04 02:17:24;;;;;;;5.10;4.60;;;13.00;99.90;;;;;;5083170;28;20047;-65
2022/07/04 02:19:49;;;;;;;5.38;4.88;;;13.00;99.90;;;;;;5086090;28;20487;-65
2022/07/04 02:22:15;;;;;;;5.40;4.68;;;13.10;99.90;;;;;;5083439;28;20036;-65
2022/07/04 02:24:41;;;;;;;5.72;5.13;;;13.00;99.90;;;;;;5085833;28;20106;-65
2022/07/04 02:27:07;;;;;;;4.45;4.15;;;13.00;99.90;;;;;;5079222;28;20072;-65
2022/07/04 02:29:33;;;;;;;5.20;4.68;;;12.90;99.90;;;;;;5081212;28;20035;-65
2022/07/04 02:31:58;;;;;;;4.80;4.40;;;12.90;99.90;;;;;;5068206;28;20032;-65
2022/07/04 02:34:24;;;;;;;8.45;4.85;;;12.90;99.90;;;;;;5065566;28;20079;-65
2022/07/04 02:36:50;;;;;;;5.05;4.35;;;12.90;99.90;;;;;;5068964;28;20044;-65
2022/07/04 02:39:16;;;;;;;4.25;3.75;;;12.90;99.90;;;;;;5079895;28;20127;-65
2022/07/04 02:41:41;;;;;;;6.95;4.40;;;12.80;99.90;;;;;;5085288;28;20461;-65
2022/07/04 02:44:07;;;;;;;5.35;4.80;;;12.80;99.90;;;;;;5080336;28;20063;-65
2022/07/04 02:46:33;;;;;;;7.05;5.30;;;12.80;99.90;;;;;;5081241;28;20482;-65
2022/07/04 02:49:00;;;;;;;7.97;6.28;;;12.80;99.90;;;;;;5082293;28;20097;-65
2022/07/04 02:51:26;;;;;;;4.50;4.10;;;12.80;99.90;;;;;;5082711;28;20036;-65
2022/07/04 02:53:51;;;;;;;6.45;5.50;;;12.70;99.90;;;;;;5078769;28;20050;-65
2022/07/04 02:56:17;;;;;;;5.80;5.30;;;12.80;99.90;;;;;;5080198;28;20036;-65
2022/07/04 02:58:43;;;;;;;6.22;5.68;;;12.80;99.90;;;;;;5086790;28;20043;-65
2022/07/04 03:01:08;;;;;;;5.80;5.25;;;12.70;99.90;;;;;;5084052;28;20048;-65
2022/07/04 03:03:34;;;;;;;5.82;5.32;;;12.80;99.90;;;;;;5086985;28;20498;-65
2022/07/04 03:06:00;;;;;;;5.65;5.05;;;12.70;99.90;;;;;;5081232;28;20044;-65
2022/07/04 03:08:26;;;;;;;6.30;5.07;;;12.70;99.90;;;;;;5089149;28;20124;-65
2022/07/04 03:10:51;;;;;;;7.32;4.20;;;12.80;99.90;;;;;;5088155;28;20042;-65
2022/07/04 03:13:18;;;;;;;5.25;4.35;;;12.80;99.90;;;;;;5079662;28;20040;-65
2022/07/04 03:15:44;;;;;;;4.63;3.67;;;12.70;99.90;;;;;;5069256;28;20484;-65
2022/07/04 03:18:11;;;;;;;5.15;3.90;;;12.70;99.90;;;;;;5086183;28;20037;-65
2022/07/04 03:20:37;;;;;;;8.15;3.85;;;12.90;99.90;;;;;;5064669;28;20097;-65
2022/07/04 03:23:02;;;;;;;6.00;5.40;;;12.50;99.90;;;;;;5082973;28;20036;-65
2022/07/04 03:25:29;;;;;;;5.05;4.35;;;12.50;99.90;;;;;;5084851;28;20064;-65
2022/07/04 03:28:16;;;;;;;9.25;4.35;;;12.50;99.90;;;;;;5085440;28;20447;-65
2022/07/04 03:30:42;;;;;;;5.47;4.97;;;12.50;99.90;;;;;;5068554;28;20047;-65
2022/07/04 03:33:07;;;;;;;8.65;5.45;;;12.50;99.90;;;;;;5064798;28;20036;-65
2022/07/04 03:35:33;;;;;;;5.15;4.65;;;12.60;99.90;;;;;;5081323;28;20053;-65
2022/07/04 03:37:59;;;;;;;6.82;4.72;;;12.60;99.90;;;;;;5068892;28;20039;-65
2022/07/04 03:40:25;;;;;;;4.65;4.28;;;12.60;99.90;;;;;;5065962;28;20532;-65
2022/07/04 03:42:51;;;;;;;4.30;3.90;;;12.60;99.90;;;;;;5085147;28;20051;-65
2022/07/04 03:45:16;;;;;;;10.18;3.97;;;12.60;99.90;;;;;;5063566;28;20036;-65
2022/07/04 03:47:42;;;;;;;3.17;2.88;;;12.60;99.90;;;;;;5081373;28;20101;-65
2022/07/04 03:50:08;;;;;;;4.60;3.42;;;12.60;99.90;;;;;;5064776;28;20482;-65
2022/07/04 03:52:33;;;;;;;5.07;4.55;;;12.60;99.90;;;;;;5081274;28;20036;-65
2022/07/04 03:54:59;;;;;;;4.88;4.40;;;12.60;99.90;;;;;;5087293;28;20035;-65
2022/07/04 03:57:25;;;;;;;4.40;3.88;;;12.70;99.90;;;;;;5085359;28;20044;-65
2022/07/04 03:59:50;;;;;;;5.65;5.15;;;12.70;99.90;;;;;;5083037;28;20040;-65
2022/07/04 04:02:16;;;;;;;3.70;3.40;;;12.80;99.90;;;;;;5082713;28;20056;-65
2022/07/04 04:07:26;;;;;;;7.78;6.07;;;12.90;99.90;;;;;;5080736;28;21066;-65
2022/07/04 04:09:52;;;;;;;6.68;6.00;;;13.00;99.90;;;;;;5064993;28;20151;-65
2022/07/04 04:12:17;;;;;;;7.35;5.30;;;13.10;99.90;;;;;;5062799;28;20039;-65
2022/07/04 04:14:43;;;;;;;8.98;5.53;;;13.30;99.90;;;;;;5067727;28;20612;-65
2022/07/04 04:17:09;;;;;;;7.20;5.85;;;13.50;99.90;;;;;;5065735;28;20039;-65
2022/07/04 04:19:34;;;;;;;5.72;5.20;;;13.60;99.90;;;;;;5084284;28;20524;-65
2022/07/04 04:22:00;;;;;;;6.95;4.90;;;13.80;99.90;;;;;;5081106;28;20049;-65
2022/07/04 04:24:26;;;;;;;5.47;4.97;;;13.90;99.90;;;;;;5070836;28;20039;-65
2022/07/04 04:26:51;;;;;;;10.07;5.00;;;14.10;99.90;;;;;;5066360;28;20097;-65
2022/07/04 04:29:17;;;;;;;6.50;4.40;;;14.30;99.90;;;;;;5066542;28;20032;-65
2022/07/04 04:31:43;;;;;;;7.03;4.10;;;14.90;99.90;;;;;;5068225;28;20408;-65
2022/07/04 04:34:09;;;;;;;5.05;3.70;;;15.70;99.90;;;;;;5066688;28;20086;-65
2022/07/04 04:36:34;;;;;;;7.05;3.50;;;16.80;99.90;;;;;;5067773;28;20072;-65
2022/07/04 04:39:00;;;;;;;6.55;3.78;;;18.10;99.90;;;;;;5080886;28;20528;-65
2022/07/04 04:41:26;;;;;;;6.88;3.70;;;19.10;99.90;;;;;;5066213;28;20135;-65
2022/07/04 04:43:51;;;;;;;8.18;4.15;;;19.70;99.90;;;;;;5082133;28;22311;-65
2022/07/04 04:46:17;;;;;;;4.88;3.40;;;20.40;99.90;;;;;;5066652;28;20036;-65
2022/07/04 04:48:42;;;;;;;4.68;3.90;;;21.20;99.90;;;;;;5067416;28;20470;-65
2022/07/04 04:51:08;;;;;;;6.55;3.80;;;21.80;99.90;;;;;;5086484;28;20029;-65
2022/07/04 04:53:34;;;;;;;6.65;3.92;;;22.20;99.90;;;;;;5066805;28;20071;-65
2022/07/04 04:55:59;;;;;;;7.07;4.05;;;22.70;99.90;;;;;;5081603;28;20048;-65
2022/07/04 04:58:25;;;;;;;9.43;4.45;;;23.00;99.90;;;;;;5085489;28;20092;-65
2022/07/04 05:00:51;;;;;;;7.25;4.47;;;23.60;99.90;;;;;;5078159;28;20055;-65
2022/07/04 05:03:17;;;;;;;7.97;4.60;;;24.00;99.90;;;;;;5082538;28;20923;-65
2022/07/04 05:05:43;;;;;;;10.05;5.18;;;24.20;99.90;;;;;;5085948;28;20553;-65
2022/07/04 05:08:09;;;;;;;8.05;5.03;;;23.70;99.90;;;;;;5063854;28;20072;-65
2022/07/04 05:10:34;;;;;;;6.88;4.63;;;23.80;99.90;;;;;;5065473;28;20070;-65
2022/07/04 05:13:00;;;;;;;9.73;4.68;;;24.20;99.90;;;;;;5086408;28;20114;-65
2022/07/04 05:15:26;;;;;;;6.97;4.07;;;24.50;99.90;;;;;;5084005;28;20032;-65
2022/07/04 05:17:52;;;;;;;8.20;4.35;;;24.20;99.90;;;;;;5084193;28;20058;-65
2022/07/04 05:20:17;;;;;;;8.82;4.65;;;24.80;99.90;;;;;;5063720;28;20139;-65
2022/07/04 05:22:43;;;;;;;7.95;3.65;;;25.70;99.90;;;;;;5085240;28;20150;-65
2022/07/04 05:25:09;;;;;;;7.03;4.00;;;26.50;99.90;;;;;;5065505;28;20044;-65
2022/07/04 05:27:34;;;;;;;4.95;3.47;;;27.00;99.90;;;;;;5067969;28;20047;-65
2022/07/04 05:30:01;;;;;;;7.45;3.78;;;26.90;99.90;;;;;;5083658;28;20032;-66
2022/07/04 05:32:27;;;;;;;6.13;3.30;;;26.40;99.90;;;;;;5066447;28;20040;-66
2022/07/04 05:34:53;;;;;;;4.47;2.85;;;25.80;99.90;;;;;;5062091;28;20035;-66
2022/07/04 05:37:18;;;;;;;6.47;2.70;;;25.30;99.90;;;;;;5064100;28;20543;-65
2022/07/04 05:39:44;;;;;;;8.65;3.28;;;24.90;99.90;;;;;;5083404;28;20072;-65
2022/07/04 05:42:10;;;;;;;7.18;2.90;;;24.50;99.90;;;;;;5061539;28;20032;-65
2022/07/04 05:44:36;;;;;;;6.35;3.10;;;24.20;99.90;;;;;;5083510;28;20080;-65
2022/07/04 05:47:01;;;;;;;5.90;2.92;;;24.10;99.90;;;;;;5068914;28;20055;-65
2022/07/04 05:49:27;;;;;;;5.13;2.28;;;23.90;99.90;;;;;;5062783;28;20115;-65
2022/07/04 05:51:53;;;;;;;3.75;2.50;;;23.90;99.90;;;;;;5084806;28;20032;-65
2022/07/04 05:54:19;;;;;;;4.35;2.35;;;23.80;99.90;;;;;;5067474;28;20040;-65
2022/07/04 05:56:44;;;;;;;4.70;2.60;;;23.70;99.90;;;;;;5067333;28;20139;-65
2022/07/04 05:59:10;;;;;;;6.53;3.03;;;23.70;99.90;;;;;;5080126;28;20135;-65
2022/07/04 06:01:36;;;;;;;5.90;2.30;;;23.70;99.90;;;;;;5065147;28;20038;-65
2022/07/04 06:04:03;;;;;;;12.07;2.65;;;23.70;99.90;;;;;;5063943;28;20065;-65
2022/07/04 06:06:29;;;;;;;6.28;2.38;;;23.70;99.90;;;;;;5078313;28;20040;-65
2022/07/04 06:08:56;;;;;;;5.97;2.28;;;23.70;99.90;;;;;;5077962;28;20047;-65
2022/07/04 06:11:21;;;;;;;5.35;2.03;;;23.90;99.90;;;;;;5082664;28;20040;-65
2022/07/04 06:13:47;;;;;;;8.23;2.38;;;23.70;99.90;;;;;;5061903;28;20051;-65
2022/07/04 06:16:13;;;;;;;16.02;2.40;;;23.50;99.90;;;;;;5079963;28;20033;-65
2022/07/04 06:18:39;;;;;;;7.00;1.98;;;23.40;99.90;;;;;;5044266;28;20456;-65
2022/07/04 06:21:04;;;;;;;11.32;2.53;;;23.50;99.90;;;;;;5065447;28;20083;-65
2022/07/04 06:23:30;;;;;;;6.82;1.95;;;23.60;99.90;;;;;;5083327;28;20036;-65
2022/07/04 06:25:56;;;;;;;7.40;2.17;;;23.70;99.90;;;;;;5075319;28;20055;-65
2022/07/04 06:28:21;;;;;;;5.13;2.40;;;23.80;99.90;;;;;;5061299;28;20546;-65
2022/07/04 06:30:47;;;;;;;4.75;2.50;;;23.90;99.90;;;;;;5080938;28;20093;-65
2022/07/04 06:33:13;;;;;;;10.82;2.58;;;24.00;99.90;;;;;;5066120;28;20044;-65
2022/07/04 06:35:44;;;;;;;4.80;1.95;;;23.90;99.90;;;;;;5086904;28;20036;-65
2022/07/04 06:38:19;;;;;;;8.10;2.88;;;24.00;99.90;;;;;;5072362;28;20032;-65
2022/07/04 06:40:45;;;;;;;7.22;2.30;;;24.00;99.90;;;;;;5088414;28;20044;-65
2022/07/04 06:43:11;;;;;;;7.00;2.47;;;24.00;99.90;;;;;;5064464;28;20471;-65
2022/07/04 06:45:37;;;;;;;10.38;2.35;;;23.90;99.90;;;;;;5085821;28;20036;-65
2022/07/04 06:48:06;;;;;;;17.15;3.17;;;23.80;99.90;;;;;;5085104;28;20036;-65
2022/07/04 06:50:33;;;;;;;8.25;2.90;;;23.90;99.90;;;;;;5066265;28;20478;-65
2022/07/04 06:53:00;;;;;;;7.55;2.40;;;23.90;99.90;;;;;;5088089;28;20043;-65
2022/07/04 06:55:26;;;;;;;9.10;2.28;;;24.00;99.90;;;;;;5083328;28;20089;-65
2022/07/04 06:57:51;;;;;;;7.32;2.22;;;24.00;99.90;;;;;;5068003;28;20043;-65
2022/07/04 07:00:17;;;;;;;10.52;2.38;;;24.20;99.90;;;;;;5066934;28;20074;-65
2022/07/04 07:02:43;;;;;;;6.75;2.45;;;24.30;99.90;;;;;;5065969;28;20047;-65
2022/07/04 07:05:08;;;;;;;4.13;2.10;;;24.10;99.90;;;;;;5064299;28;20121;-65
2022/07/04 07:07:34;;;;;;;5.75;2.47;;;24.20;99.90;;;;;;5086214;28;20053;-65
2022/07/04 07:10:01;;;;;;;8.57;2.47;;;24.30;99.90;;;;;;5062356;28;20123;-65
2022/07/04 07:12:26;;;;;;;10.27;2.55;;;24.20;99.90;;;;;;5065966;28;20051;-65
2022/07/04 07:14:52;;;;;;;12.50;3.17;;;24.40;99.90;;;;;;5068552;28;20040;-65
2022/07/04 07:17:18;;;;;;;6.68;2.30;;;24.20;99.90;;;;;;5082971;28;20032;-65
2022/07/04 07:19:44;;;;;;;15.25;3.40;;;24.10;99.90;;;;;;5068530;28;20043;-65
2022/07/04 07:22:11;;;;;;;7.97;2.67;;;23.90;99.90;;;;;;5066250;28;20106;-65
2022/07/04 07:24:36;;;;;;;9.95;2.85;;;23.90;99.90;;;;;;5084314;28;20079;-65
2022/07/04 07:27:02;;;;;;;9.60;3.42;;;23.60;99.90;;;;;;5089551;28;20493;-65
2022/07/04 07:29:28;;;;;;;8.90;2.28;;;23.50;99.90;;;;;;5065929;28;20051;-65
2022/07/04 07:31:54;;;;;;;8.30;2.53;;;23.50;99.90;;;;;;5087953;28;20115;-65
2022/07/04 07:34:19;;;;;;;8.27;2.42;;;23.40;99.90;;;;;;5080356;28;20371;-65
2022/07/04 07:36:45;;;;;;;10.90;3.05;;;23.30;99.90;;;;;;5063837;28;20513;-65
2022/07/04 07:39:11;;;;;;;18.33;2.85;;;23.20;99.90;;;;;;5060829;28;20814;-65
2022/07/04 07:41:36;;;;;;;5.90;2.20;;;23.20;99.90;;;;;;5065083;28;20130;-65
2022/07/04 07:44:02;;;;;;;6.40;2.25;;;23.10;99.90;;;;;;5080427;28;22020;-65
2022/07/04 07:46:28;;;;;;;6.22;1.92;;;23.00;99.90;;;;;;5081934;28;20553;-65
2022/07/04 07:48:54;;;;;;;8.75;2.03;;;23.20;99.90;;;;;;5079795;28;20035;-65
2022/07/04 07:51:19;;;;;;;7.45;1.80;;;23.10;99.90;;;;;;5081935;28;20047;-65
2022/07/04 07:53:45;;;;;;;19.63;2.72;;;22.80;99.90;;;;;;5080631;28;20115;-65
2022/07/04 07:56:11;;;;;;;11.63;2.10;;;22.90;99.90;;;;;;5084967;28;20608;-65
2022/07/04 07:58:36;;;;;;;12.10;1.83;;;23.10;99.90;;;;;;5080751;28;20043;-65
2022/07/04 08:01:02;;;;;;;7.13;2.22;;;23.00;99.90;;;;;;5085137;28;20024;-65
2022/07/04 08:06:13;;;;;;;5.82;2.20;;;23.50;99.90;;;;;;5065947;28;20052;-65
2022/07/04 08:08:40;;;;;;;6.32;1.77;;;23.90;99.90;;;;;;5085451;28;20046;-65
2022/07/04 08:11:06;;;;;;;5.78;2.10;;;24.10;99.90;;;;;;5084503;28;20135;-65
2022/07/04 08:13:31;;;;;;;8.20;1.75;;;24.30;99.90;;;;;;5068315;28;20130;-65
2022/07/04 08:15:57;;;;;;;6.32;1.45;;;24.50;99.90;;;;;;5069745;28;20031;-65
2022/07/04 08:18:23;;;;;;;9.18;2.17;;;24.60;99.90;;;;;;5065557;28;20058;-65
2022/07/04 08:20:50;;;;;;;12.20;2.70;;;24.80;99.90;;;;;;5066649;28;20088;-65
2022/07/04 08:23:16;;;;;;;6.82;1.48;;;24.70;99.90;;;;;;5082536;28;20037;-65
2022/07/04 08:25:42;;;;;;;8.38;1.20;;;24.30;99.90;;;;;;5081367;28;20122;-65
2022/07/04 08:28:08;;;;;;;6.95;1.23;;;24.10;99.90;;;;;;5066695;28;20147;-65
2022/07/04 08:30:34;;;;;;;8.57;1.45;;;23.90;99.90;;;;;;5068829;28;20453;-65
2022/07/04 08:33:00;;;;;;;6.00;1.52;;;23.80;99.90;;;;;;5065974;28;20036;-65
2022/07/04 08:35:26;;;;;;;5.25;1.27;;;23.80;99.90;;;;;;5064454;28;20134;-65
2022/07/04 08:37:55;;;;;;;3.53;0.85;;;23.80;99.90;;;;;;5081919;28;20047;-65
2022/07/04 08:40:25;;;;;;;7.88;1.30;;;24.00;99.90;;;;;;5065636;28;20122;-65
2022/07/04 08:42:52;;;;;;;6.38;1.55;;;24.40;99.90;;;;;;5082898;28;20135;-65
2022/07/04 08:45:26;;;;;;;5.28;1.00;;;24.30;99.90;;;;;;5068215;28;20100;-65
2022/07/04 08:47:59;;;;;;;3.42;1.00;;;24.60;99.90;;;;;;5066472;28;20699;-65
2022/07/04 08:50:33;;;;;;;4.28;1.10;;;24.60;99.90;;;;;;5064446;28;20048;-65
2022/07/04 08:53:13;;;;;;;3.20;0.80;;;25.00;99.90;;;;;;5061236;28;20040;-65
2022/07/04 08:58:31;;;;;;;;;;;25.30;99.90;;;;;;5064544;28;20324;-65
2022/07/04 09:01:05;;;;;;;6.03;1.30;;;25.00;99.90;;;;;;5069794;28;20898;-65
2022/07/04 09:03:31;;;;;;;4.43;1.10;;;24.70;99.90;;;;;;5085800;28;20040;-65
2022/07/04 09:05:58;;;;;;;4.55;0.60;;;24.30;99.90;;;;;;5081503;28;20501;-65
2022/07/04 09:08:25;;;;;;;3.05;0.70;;;23.90;99.90;;;;;;5082061;28;20036;-65
2022/07/04 09:10:52;;;;;;;2.72;0.50;;;23.50;99.90;;;;;;5065007;28;20493;-65
2022/07/04 09:13:19;;;;;;;3.90;0.40;;;23.20;99.90;;;;;;5082340;28;20044;-65
2022/07/04 09:15:47;;;;;;;3.22;0.80;;;22.80;99.90;;;;;;5062906;28;20486;-65
2022/07/04 09:18:23;;;;;;;4.28;0.70;;;22.60;99.90;;;;;;5083436;28;20075;-65
2022/07/04 09:20:49;;;;;;;1.20;0.50;;;22.60;99.90;;;;;;5075537;28;20036;-65
2022/07/04 09:23:20;;;;;;;1.02;0.40;;;22.60;99.90;;;;;;5079964;28;20028;-65
2022/07/04 09:25:47;;;;;;;1.77;0.40;;;22.90;99.90;;;;;;5077910;28;20040;-65
2022/07/04 09:28:26;;;;;;;3.90;0.52;;;23.30;99.90;;;;;;5082261;28;20442;-65
2022/07/04 09:30:51;;;;;;;6.78;1.45;;;23.40;99.90;;;;;;5063342;28;20044;-65
2022/07/04 09:33:18;;;;;;;1.30;0.43;;;23.40;99.90;;;;;;5062468;28;20493;-66
2022/07/04 09:35:44;;;;;;;1.42;0.38;;;23.50;99.90;;;;;;5061360;28;20047;-65
2022/07/04 09:38:12;;;;;;;7.95;0.80;;;23.50;99.90;;;;;;5060014;28;20044;-65
2022/07/04 09:43:24;;;;;;;9.63;0.65;;;23.60;99.90;;;;;;5081513;28;20061;-65
2022/07/04 09:46:03;;;;;;;6.25;0.65;;;23.70;99.90;;;;;;5060780;28;20108;-65
2022/07/04 09:48:49;;;;;;;1.92;0.40;;;23.90;99.90;;;;;;5055855;28;20051;-65
2022/07/04 09:51:34;;;;;;;1.30;0.35;;;24.20;99.90;;;;;;5080463;28;20051;-65
2022/07/04 09:54:16;;;;;;;3.30;0.85;;;24.20;99.90;;;;;;5084434;28;20471;-65
2022/07/04 09:56:43;;;;;;;3.90;0.70;;;24.10;99.90;;;;;;5081698;28;20036;-65
2022/07/04 09:59:09;;;;;;;4.60;0.50;;;24.00;99.90;;;;;;5062651;28;20075;-65
2022/07/04 10:01:35;;;;;;;4.38;0.38;;;24.00;99.90;;;;;;5081104;28;20125;-65
2022/07/04 10:04:03;;;;;;;3.38;0.40;;;24.00;99.90;;;;;;5061086;28;20490;-65
2022/07/04 10:06:33;;;;;;;4.90;0.50;;;24.00;99.90;;;;;;5067195;28;20032;-65
2022/07/04 10:09:08;;;;;;;4.22;0.38;;;24.10;99.90;;;;;;5069771;28;20071;-65
2022/07/04 10:11:34;;;;;;;3.42;0.60;;;24.20;99.90;;;;;;5087116;28;20371;-65
2022/07/04 10:14:01;;;;;;;4.57;1.13;;;24.50;99.90;;;;;;5090581;28;20059;-65
2022/07/04 10:16:27;;;;;;;4.50;0.50;;;24.30;99.90;;;;;;5088681;28;20071;-65
2022/07/04 10:18:54;;;;;;;3.15;0.70;;;24.30;99.90;;;;;;5065073;28;20059;-65
2022/07/04 10:21:20;;;;;;;1.95;0.60;;;24.30;99.90;;;;;;5063450;28;20063;-65
2022/07/04 10:23:49;;;;;;;7.05;0.40;;;24.20;99.90;;;;;;5069249;28;20051;-65
2022/07/04 10:26:19;;;;;;;4.43;0.68;;;24.10;99.90;;;;;;5088598;28;20043;-65
2022/07/04 10:28:47;;;;;;;7.28;0.68;;;23.90;99.90;;;;;;5067962;28;20051;-65
2022/07/04 10:31:14;;;;;;;3.03;0.40;;;23.60;99.90;;;;;;5083497;28;20068;-64
2022/07/04 10:33:40;;;;;;;27.60;2.78;;;23.40;99.90;;;;;;5055833;28;20036;-65
2022/07/04 10:36:20;;;;;;;13.63;0.70;;;23.30;99.90;;;;;;5087116;28;20052;-65
2022/07/04 10:38:51;;;;;;;3.55;0.40;;;23.00;99.90;;;;;;5086881;28;20082;-65
2022/07/04 10:41:20;;;;;;;4.55;0.80;;;22.80;99.90;;;;;;5086647;28;20359;-65
2022/07/04 10:43:53;;;;;;;1.42;0.60;;;22.80;99.90;;;;;;5083601;28;20052;-65
2022/07/04 10:46:29;;;;;;;2.83;0.70;;;23.00;99.90;;;;;;5070731;28;20044;-66
2022/07/04 10:49:07;;;;;;;2.40;0.70;;;23.10;99.90;;;;;;5080431;28;20060;-65
2022/07/04 10:51:33;;;;;;;3.83;0.60;;;23.30;99.90;;;;;;5068225;28;20166;-65
2022/07/04 10:54:03;;;;;;;2.90;0.50;;;23.60;99.90;;;;;;5084482;28;20490;-65
2022/07/04 10:56:35;;;;;;;3.75;0.40;;;23.90;99.90;;;;;;5072405;28;20462;-66
2022/07/04 10:59:13;;;;;;;3.17;0.73;;;24.10;99.90;;;;;;5080370;28;20135;-65
2022/07/04 11:01:44;;;;;;;8.10;0.55;;;24.30;99.90;;;;;;5068716;28;20130;-65
2022/07/04 11:04:10;;;;;;;6.75;1.33;;;24.40;99.90;;;;;;5068971;28;20040;-65
2022/07/04 11:06:36;;;;;;;1.48;0.50;;;24.50;99.90;;;;;;5065312;28;20044;-65
2022/07/04 11:09:14;;;;;;;3.42;1.10;;;24.60;99.90;;;;;;5087191;28;20118;-65
2022/07/04 11:11:58;;;;;;;2.38;0.50;;;24.90;99.90;;;;;;5086269;28;20071;-65
2022/07/04 11:14:44;;;;;;;2.83;0.80;;;24.70;99.90;;;;;;5070311;28;20122;-65
2022/07/04 11:17:20;;;;;;;2.70;0.50;;;24.40;99.90;;;;;;5065226;28;20123;-65
2022/07/04 11:19:47;;;;;;;5.47;0.60;;;24.10;99.90;;;;;;5069614;28;20446;-65
2022/07/04 11:22:22;;;;;;;3.03;0.40;;;23.90;99.90;;;;;;5070062;28;20074;-65
2022/07/04 11:24:48;;;;;;;4.22;0.50;;;24.10;99.90;;;;;;5087148;28;20382;-64
2022/07/04 11:27:14;;;;;;;3.72;0.50;;;24.30;99.90;;;;;;5084500;28;20048;-65
2022/07/04 11:29:55;;;;;;;3.33;0.70;;;24.50;99.90;;;;;;5072362;28;20036;-65
2022/07/04 11:32:29;;;;;;;3.47;0.50;;;24.60;99.30;;;;;;5069140;28;20047;-65
2022/07/04 11:34:55;;;;;;;3.47;0.65;;;24.80;99.90;;;;;;5067143;28;20129;-65
2022/07/04 11:37:21;;;;;;;2.53;0.93;;;25.10;99.90;;;;;;5062473;28;20051;-65
2022/07/04 11:39:51;;;;;;;1.80;0.52;;;25.20;99.30;;;;;;5086698;28;20406;-65
2022/07/04 11:45:05;;;;;;;2.72;0.40;;;24.80;99.40;;;;;;5068553;28;20136;-65
2022/07/04 11:47:41;;;;;;;9.00;0.70;;;24.60;99.60;;;;;;5084013;28;20098;-65
2022/07/04 11:50:11;;;;;;;5.18;1.15;;;24.60;99.50;;;;;;5083541;28;20125;-65
2022/07/04 11:52:36;;;;;;;4.15;0.60;;;24.70;99.90;;;;;;5088015;28;20052;-65
2022/07/04 11:55:03;;;;;;;2.05;0.55;;;24.70;99.90;;;;;;5069963;28;20381;-65
2022/07/04 11:57:37;;;;;;;2.85;0.35;;;24.70;99.90;;;;;;5066958;28;20040;-65
2022/07/04 12:00:09;;;;;;;3.10;0.40;;;24.80;99.90;;;;;;5065073;28;20367;-65
2022/07/04 12:02:35;;;;;;;1.98;0.50;;;24.80;99.90;;;;;;5070287;28;20041;-65
2022/07/04 12:05:03;;;;;;;1.40;0.47;;;24.70;99.90;;;;;;5087099;28;20028;-65
2022/07/04 12:07:32;;;;;;;3.10;0.40;;;24.80;99.90;;;;;;5071602;28;20086;-65
2022/07/04 12:10:17;;;;;;;10.70;1.33;;;25.00;99.90;;;;;;5085291;28;20532;-65
2022/07/04 12:12:59;;;;;;;6.20;0.80;;;24.90;99.90;;;;;;5069307;28;20035;-65
2022/07/04 12:15:35;;;;;;;2.60;0.40;;;25.00;99.10;;;;;;5071157;28;20528;-65
2022/07/04 12:18:01;;;;;;;1.85;0.30;;;25.00;99.40;;;;;;5082914;28;20051;-65
2022/07/04 12:20:28;;;;;;;21.48;1.52;;;25.20;99.20;;;;;;5064697;28;20048;-65
2022/07/04 12:22:59;;;;;;;4.25;0.50;;;25.20;96.80;;;;;;5086041;28;20031;-65
2022/07/04 12:25:28;;;;;;;8.82;1.00;;;24.90;97.50;;;;;;5080392;28;20149;-65
2022/07/04 12:27:56;;;;;;;1.65;0.40;;;25.00;98.50;;;;;;5083710;28;20032;-65
2022/07/04 12:30:23;;;;;;;1.08;0.30;;;25.00;98.50;;;;;;5069655;28;20055;-65
2022/07/04 12:32:51;;;;;;;7.63;0.50;;;24.90;98.60;;;;;;5085342;28;20028;-65
2022/07/04 12:35:52;;;;;;;1.83;0.77;;;24.70;98.70;;;;;;5068024;28;20038;-65
2022/07/04 12:38:27;;;;;;;15.60;1.95;;;24.70;98.50;;;;;;5029728;28;20052;-65
2022/07/04 12:41:06;;;;;;;3.10;0.50;;;24.80;98.00;;;;;;5062997;28;21759;-65
2022/07/04 12:43:54;;;;;;;4.25;0.43;;;25.00;98.00;;;;;;5084539;28;20048;-65
2022/07/04 12:46:30;;;;;;;3.53;1.17;;;25.10;97.10;;;;;;5084908;28;20960;-65
2022/07/04 12:48:57;;;;;;;2.63;0.40;;;25.20;96.50;;;;;;5067053;28;20068;-65
2022/07/04 12:51:25;;;;;;;3.05;0.45;;;25.30;96.80;;;;;;5070145;28;20047;-64
2022/07/04 12:53:52;;;;;;;2.38;0.70;;;25.20;96.40;;;;;;5067366;28;20394;-65
2022/07/04 12:56:34;;;;;;;3.88;0.60;;;25.00;97.00;;;;;;5088404;28;20040;-65
2022/07/04 12:59:12;;;;;;;3.97;0.35;;;24.70;97.10;;;;;;5084381;28;20040;-65
2022/07/04 13:01:39;;;;;;;3.13;0.45;;;24.40;97.90;;;;;;5069923;28;20069;-65
2022/07/04 13:04:04;;;;;;;1.15;0.30;;;24.50;98.00;;;;;;5065473;28;20128;-65
2022/07/04 13:06:30;;;;;;;2.65;0.60;;;24.50;98.00;;;;;;5066859;28;20127;-65